sensor_id;sensor_type;location;lat;lon;timestamp;P1;durP1;ratioP1;P2;durP2;ratioP2
31424;SDS011;18054;51.572;7.372;2023-06-26T00:02:34;11.63;;;7.57;;
31424;SDS011;18054;51.572;7.372;2023-06-26T00:05:01;11.35;;;7.72;;
31424;SDS011;18054;51.572;7.372;2023-06-26T00:07:30;12.07;;;7.22;;
31424;SDS011;18054;51.572;7.372;2023-06-26T00:10:00;11.70;;;7.55;;
31424;SDS011;18054;51.572;7.372;2023-06-26T00:12:28;12.20;;;7.28;;
31424;SDS011;18054;51.572;7.372;2023-06-26T00:14:56;16.00;;;7.72;;
31424;SDS011;18054;51.572;7.372;2023-06-26T00:17:24;12.50;;;7.35;;
31424;SDS011;18054;51.572;7.372;2023-06-26T00:22:20;25.65;;;6.95;;
31424;SDS011;18054;51.572;7.372;2023-06-26T00:24:48;12.40;;;6.95;;
31424;SDS011;18054;51.572;7.372;2023-06-26T00:27:15;10.70;;;7.00;;
31424;SDS011;18054;51.572;7.372;2023-06-26T00:29:43;8.95;;;6.15;;
31424;SDS011;18054;51.572;7.372;2023-06-26T00:32:10;11.68;;;6.05;;
31424;SDS011;18054;51.572;7.372;2023-06-26T00:34:38;11.70;;;6.25;;
31424;SDS011;18054;51.572;7.372;2023-06-26T00:37:07;9.10;;;6.63;;
31424;SDS011;18054;51.572;7.372;2023-06-26T00:39:36;11.07;;;6.53;;
31424;SDS011;18054;51.572;7.372;2023-06-26T00:42:04;9.65;;;6.38;;
31424;SDS011;18054;51.572;7.372;2023-06-26T00:44:33;9.13;;;6.53;;
31424;SDS011;18054;51.572;7.372;2023-06-26T00:49:28;14.68;;;6.60;;
31424;SDS011;18054;51.572;7.372;2023-06-26T00:51:56;9.45;;;6.10;;
31424;SDS011;18054;51.572;7.372;2023-06-26T00:54:24;8.75;;;6.55;;
31424;SDS011;18054;51.572;7.372;2023-06-26T00:56:53;10.73;;;6.35;;
31424;SDS011;18054;51.572;7.372;2023-06-26T00:59:20;10.75;;;6.22;;
31424;SDS011;18054;51.572;7.372;2023-06-26T01:01:47;11.18;;;5.60;;
31424;SDS011;18054;51.572;7.372;2023-06-26T01:04:15;13.23;;;6.00;;
31424;SDS011;18054;51.572;7.372;2023-06-26T01:06:45;8.82;;;6.32;;
31424;SDS011;18054;51.572;7.372;2023-06-26T01:09:16;11.02;;;6.60;;
31424;SDS011;18054;51.572;7.372;2023-06-26T01:11:44;9.57;;;6.20;;
31424;SDS011;18054;51.572;7.372;2023-06-26T01:14:12;9.60;;;6.07;;
31424;SDS011;18054;51.572;7.372;2023-06-26T01:16:40;13.85;;;6.75;;
31424;SDS011;18054;51.572;7.372;2023-06-26T01:19:15;9.95;;;6.18;;
31424;SDS011;18054;51.572;7.372;2023-06-26T01:21:51;8.45;;;5.82;;
31424;SDS011;18054;51.572;7.372;2023-06-26T01:24:23;9.45;;;6.28;;
31424;SDS011;18054;51.572;7.372;2023-06-26T01:26:55;9.63;;;6.47;;
31424;SDS011;18054;51.572;7.372;2023-06-26T01:29:24;9.13;;;6.38;;
31424;SDS011;18054;51.572;7.372;2023-06-26T01:31:52;7.85;;;6.03;;
31424;SDS011;18054;51.572;7.372;2023-06-26T01:34:20;8.90;;;6.38;;
31424;SDS011;18054;51.572;7.372;2023-06-26T01:36:49;9.48;;;6.32;;
31424;SDS011;18054;51.572;7.372;2023-06-26T01:39:18;10.82;;;5.72;;
31424;SDS011;18054;51.572;7.372;2023-06-26T01:41:46;9.90;;;5.93;;
31424;SDS011;18054;51.572;7.372;2023-06-26T01:44:20;9.10;;;5.78;;
31424;SDS011;18054;51.572;7.372;2023-06-26T01:46:53;13.77;;;5.70;;
31424;SDS011;18054;51.572;7.372;2023-06-26T01:49:25;9.68;;;6.07;;
31424;SDS011;18054;51.572;7.372;2023-06-26T01:51:58;10.77;;;5.95;;
31424;SDS011;18054;51.572;7.372;2023-06-26T01:54:29;7.65;;;5.05;;
31424;SDS011;18054;51.572;7.372;2023-06-26T01:56:57;9.88;;;5.82;;
31424;SDS011;18054;51.572;7.372;2023-06-26T01:59:27;8.13;;;5.97;;
31424;SDS011;18054;51.572;7.372;2023-06-26T02:01:55;9.15;;;5.43;;
31424;SDS011;18054;51.572;7.372;2023-06-26T02:04:23;9.40;;;6.38;;
31424;SDS011;18054;51.572;7.372;2023-06-26T02:06:51;10.52;;;5.90;;
31424;SDS011;18054;51.572;7.372;2023-06-26T02:09:19;9.23;;;5.93;;
31424;SDS011;18054;51.572;7.372;2023-06-26T02:11:47;8.45;;;5.65;;
31424;SDS011;18054;51.572;7.372;2023-06-26T02:14:14;16.08;;;6.15;;
31424;SDS011;18054;51.572;7.372;2023-06-26T02:16:43;8.90;;;6.40;;
31424;SDS011;18054;51.572;7.372;2023-06-26T02:19:10;8.05;;;5.45;;
31424;SDS011;18054;51.572;7.372;2023-06-26T02:21:38;8.73;;;5.82;;
31424;SDS011;18054;51.572;7.372;2023-06-26T02:24:06;11.95;;;6.78;;
31424;SDS011;18054;51.572;7.372;2023-06-26T02:26:33;8.65;;;5.82;;
31424;SDS011;18054;51.572;7.372;2023-06-26T02:29:01;11.85;;;5.97;;
31424;SDS011;18054;51.572;7.372;2023-06-26T02:31:28;7.95;;;5.40;;
31424;SDS011;18054;51.572;7.372;2023-06-26T02:33:57;8.85;;;5.50;;
31424;SDS011;18054;51.572;7.372;2023-06-26T02:36:24;9.32;;;6.07;;
31424;SDS011;18054;51.572;7.372;2023-06-26T02:38:52;12.50;;;6.50;;
31424;SDS011;18054;51.572;7.372;2023-06-26T02:41:19;8.98;;;6.03;;
31424;SDS011;18054;51.572;7.372;2023-06-26T02:43:47;8.07;;;5.60;;
31424;SDS011;18054;51.572;7.372;2023-06-26T02:46:14;9.63;;;5.95;;
31424;SDS011;18054;51.572;7.372;2023-06-26T02:51:11;10.32;;;6.35;;
31424;SDS011;18054;51.572;7.372;2023-06-26T02:53:38;11.02;;;5.70;;
31424;SDS011;18054;51.572;7.372;2023-06-26T02:56:06;9.45;;;5.68;;
31424;SDS011;18054;51.572;7.372;2023-06-26T02:58:34;10.38;;;5.70;;
31424;SDS011;18054;51.572;7.372;2023-06-26T03:01:02;8.52;;;5.47;;
31424;SDS011;18054;51.572;7.372;2023-06-26T03:03:29;10.68;;;6.82;;
31424;SDS011;18054;51.572;7.372;2023-06-26T03:06:12;9.13;;;5.65;;
31424;SDS011;18054;51.572;7.372;2023-06-26T03:08:39;8.93;;;6.05;;
31424;SDS011;18054;51.572;7.372;2023-06-26T03:11:07;17.08;;;6.10;;
31424;SDS011;18054;51.572;7.372;2023-06-26T03:13:36;11.93;;;6.60;;
31424;SDS011;18054;51.572;7.372;2023-06-26T03:16:04;11.48;;;5.43;;
31424;SDS011;18054;51.572;7.372;2023-06-26T03:20:59;15.88;;;6.45;;
31424;SDS011;18054;51.572;7.372;2023-06-26T03:23:28;10.68;;;5.78;;
31424;SDS011;18054;51.572;7.372;2023-06-26T03:25:56;12.20;;;6.07;;
31424;SDS011;18054;51.572;7.372;2023-06-26T03:28:29;9.23;;;5.63;;
31424;SDS011;18054;51.572;7.372;2023-06-26T03:30:58;9.20;;;5.78;;
31424;SDS011;18054;51.572;7.372;2023-06-26T03:35:54;11.20;;;6.00;;
31424;SDS011;18054;51.572;7.372;2023-06-26T03:38:22;9.57;;;6.18;;
31424;SDS011;18054;51.572;7.372;2023-06-26T03:40:53;12.82;;;6.20;;
31424;SDS011;18054;51.572;7.372;2023-06-26T03:43:21;12.15;;;5.80;;
31424;SDS011;18054;51.572;7.372;2023-06-26T03:50:54;9.25;;;5.90;;
31424;SDS011;18054;51.572;7.372;2023-06-26T03:53:22;11.57;;;6.10;;
31424;SDS011;18054;51.572;7.372;2023-06-26T03:55:50;10.90;;;6.30;;
31424;SDS011;18054;51.572;7.372;2023-06-26T03:58:22;6.90;;;5.05;;
31424;SDS011;18054;51.572;7.372;2023-06-26T04:00:51;12.73;;;5.38;;
31424;SDS011;18054;51.572;7.372;2023-06-26T04:03:19;15.75;;;5.70;;
31424;SDS011;18054;51.572;7.372;2023-06-26T04:05:47;9.10;;;5.43;;
31424;SDS011;18054;51.572;7.372;2023-06-26T04:08:14;12.85;;;5.72;;
31424;SDS011;18054;51.572;7.372;2023-06-26T04:10:41;9.38;;;6.47;;
31424;SDS011;18054;51.572;7.372;2023-06-26T04:13:11;9.25;;;5.78;;
31424;SDS011;18054;51.572;7.372;2023-06-26T04:15:41;12.23;;;6.72;;
31424;SDS011;18054;51.572;7.372;2023-06-26T04:18:09;11.35;;;6.28;;
31424;SDS011;18054;51.572;7.372;2023-06-26T04:20:38;10.20;;;6.65;;
31424;SDS011;18054;51.572;7.372;2023-06-26T04:23:06;11.98;;;6.57;;
31424;SDS011;18054;51.572;7.372;2023-06-26T04:25:34;9.82;;;5.93;;
31424;SDS011;18054;51.572;7.372;2023-06-26T04:28:04;11.00;;;7.18;;
31424;SDS011;18054;51.572;7.372;2023-06-26T04:30:31;17.10;;;6.47;;
31424;SDS011;18054;51.572;7.372;2023-06-26T04:33:00;10.57;;;6.25;;
31424;SDS011;18054;51.572;7.372;2023-06-26T04:35:27;13.43;;;7.30;;
31424;SDS011;18054;51.572;7.372;2023-06-26T04:37:55;10.43;;;6.93;;
31424;SDS011;18054;51.572;7.372;2023-06-26T04:40:22;15.52;;;6.82;;
31424;SDS011;18054;51.572;7.372;2023-06-26T04:42:50;18.88;;;7.22;;
31424;SDS011;18054;51.572;7.372;2023-06-26T04:45:17;13.55;;;6.85;;
31424;SDS011;18054;51.572;7.372;2023-06-26T04:47:45;17.35;;;7.22;;
31424;SDS011;18054;51.572;7.372;2023-06-26T04:50:14;13.93;;;7.22;;
31424;SDS011;18054;51.572;7.372;2023-06-26T04:52:41;16.05;;;7.57;;
31424;SDS011;18054;51.572;7.372;2023-06-26T04:55:08;12.85;;;6.82;;
31424;SDS011;18054;51.572;7.372;2023-06-26T04:57:36;20.55;;;7.22;;
31424;SDS011;18054;51.572;7.372;2023-06-26T05:00:03;15.35;;;7.82;;
31424;SDS011;18054;51.572;7.372;2023-06-26T05:02:36;16.88;;;7.82;;
31424;SDS011;18054;51.572;7.372;2023-06-26T05:05:04;18.23;;;7.80;;
31424;SDS011;18054;51.572;7.372;2023-06-26T05:07:32;18.48;;;7.50;;
31424;SDS011;18054;51.572;7.372;2023-06-26T05:10:00;14.40;;;7.68;;
31424;SDS011;18054;51.572;7.372;2023-06-26T05:12:27;14.48;;;7.35;;
31424;SDS011;18054;51.572;7.372;2023-06-26T05:14:55;14.05;;;7.35;;
31424;SDS011;18054;51.572;7.372;2023-06-26T05:17:22;13.57;;;7.22;;
31424;SDS011;18054;51.572;7.372;2023-06-26T05:19:50;21.00;;;7.22;;
31424;SDS011;18054;51.572;7.372;2023-06-26T05:22:17;16.35;;;6.45;;
31424;SDS011;18054;51.572;7.372;2023-06-26T05:24:47;18.75;;;7.38;;
31424;SDS011;18054;51.572;7.372;2023-06-26T05:27:15;11.23;;;6.82;;
31424;SDS011;18054;51.572;7.372;2023-06-26T05:29:48;11.63;;;7.28;;
31424;SDS011;18054;51.572;7.372;2023-06-26T05:32:16;12.73;;;7.13;;
31424;SDS011;18054;51.572;7.372;2023-06-26T05:34:45;26.80;;;7.03;;
31424;SDS011;18054;51.572;7.372;2023-06-26T05:37:14;19.90;;;7.18;;
31424;SDS011;18054;51.572;7.372;2023-06-26T05:39:43;20.10;;;6.93;;
31424;SDS011;18054;51.572;7.372;2023-06-26T05:42:13;23.92;;;7.40;;
31424;SDS011;18054;51.572;7.372;2023-06-26T05:44:40;13.95;;;6.50;;
31424;SDS011;18054;51.572;7.372;2023-06-26T05:47:08;14.73;;;6.50;;
31424;SDS011;18054;51.572;7.372;2023-06-26T05:49:35;14.25;;;6.72;;
31424;SDS011;18054;51.572;7.372;2023-06-26T05:52:03;20.88;;;6.68;;
31424;SDS011;18054;51.572;7.372;2023-06-26T05:54:31;10.55;;;6.40;;
31424;SDS011;18054;51.572;7.372;2023-06-26T05:56:58;18.33;;;7.10;;
31424;SDS011;18054;51.572;7.372;2023-06-26T05:59:27;14.00;;;6.47;;
31424;SDS011;18054;51.572;7.372;2023-06-26T06:01:57;10.52;;;6.32;;
31424;SDS011;18054;51.572;7.372;2023-06-26T06:04:24;17.90;;;7.65;;
31424;SDS011;18054;51.572;7.372;2023-06-26T06:06:52;21.77;;;6.15;;
31424;SDS011;18054;51.572;7.372;2023-06-26T06:09:19;21.00;;;6.68;;
31424;SDS011;18054;51.572;7.372;2023-06-26T06:11:46;15.88;;;7.22;;
31424;SDS011;18054;51.572;7.372;2023-06-26T06:14:14;17.02;;;7.28;;
31424;SDS011;18054;51.572;7.372;2023-06-26T06:16:43;14.90;;;6.78;;
31424;SDS011;18054;51.572;7.372;2023-06-26T06:19:10;22.52;;;7.43;;
31424;SDS011;18054;51.572;7.372;2023-06-26T06:21:39;13.85;;;6.18;;
31424;SDS011;18054;51.572;7.372;2023-06-26T06:24:07;17.17;;;5.70;;
31424;SDS011;18054;51.572;7.372;2023-06-26T06:26:35;19.42;;;6.80;;
31424;SDS011;18054;51.572;7.372;2023-06-26T06:29:03;13.88;;;7.10;;
31424;SDS011;18054;51.572;7.372;2023-06-26T06:31:30;19.92;;;6.88;;
31424;SDS011;18054;51.572;7.372;2023-06-26T06:33:59;17.52;;;7.53;;
31424;SDS011;18054;51.572;7.372;2023-06-26T06:36:27;18.10;;;7.45;;
31424;SDS011;18054;51.572;7.372;2023-06-26T06:38:54;17.92;;;7.50;;
31424;SDS011;18054;51.572;7.372;2023-06-26T06:41:21;21.73;;;6.85;;
31424;SDS011;18054;51.572;7.372;2023-06-26T06:43:49;14.50;;;6.30;;
31424;SDS011;18054;51.572;7.372;2023-06-26T06:46:16;14.38;;;7.03;;
31424;SDS011;18054;51.572;7.372;2023-06-26T06:48:44;16.15;;;7.15;;
31424;SDS011;18054;51.572;7.372;2023-06-26T06:51:14;17.42;;;7.00;;
31424;SDS011;18054;51.572;7.372;2023-06-26T06:53:41;18.77;;;6.63;;
31424;SDS011;18054;51.572;7.372;2023-06-26T06:56:09;21.80;;;6.90;;
31424;SDS011;18054;51.572;7.372;2023-06-26T06:58:36;18.17;;;6.55;;
31424;SDS011;18054;51.572;7.372;2023-06-26T07:01:03;18.35;;;7.00;;
31424;SDS011;18054;51.572;7.372;2023-06-26T07:03:31;14.65;;;6.50;;
31424;SDS011;18054;51.572;7.372;2023-06-26T07:05:58;24.42;;;6.93;;
31424;SDS011;18054;51.572;7.372;2023-06-26T07:08:27;17.08;;;7.15;;
31424;SDS011;18054;51.572;7.372;2023-06-26T07:10:55;20.85;;;6.80;;
31424;SDS011;18054;51.572;7.372;2023-06-26T07:13:22;28.35;;;6.25;;
31424;SDS011;18054;51.572;7.372;2023-06-26T07:15:50;15.07;;;6.03;;
31424;SDS011;18054;51.572;7.372;2023-06-26T07:18:18;25.60;;;7.65;;
31424;SDS011;18054;51.572;7.372;2023-06-26T07:20:45;25.42;;;7.00;;
31424;SDS011;18054;51.572;7.372;2023-06-26T07:25:42;23.00;;;7.13;;
31424;SDS011;18054;51.572;7.372;2023-06-26T07:28:09;17.33;;;6.40;;
31424;SDS011;18054;51.572;7.372;2023-06-26T07:30:37;23.60;;;6.55;;
31424;SDS011;18054;51.572;7.372;2023-06-26T07:33:05;17.27;;;7.60;;
31424;SDS011;18054;51.572;7.372;2023-06-26T07:35:33;18.80;;;6.57;;
31424;SDS011;18054;51.572;7.372;2023-06-26T07:40:27;18.27;;;6.70;;
31424;SDS011;18054;51.572;7.372;2023-06-26T07:42:56;19.65;;;6.68;;
31424;SDS011;18054;51.572;7.372;2023-06-26T07:45:24;23.90;;;8.23;;
31424;SDS011;18054;51.572;7.372;2023-06-26T07:47:52;18.73;;;7.25;;
31424;SDS011;18054;51.572;7.372;2023-06-26T07:52:49;21.73;;;8.27;;
31424;SDS011;18054;51.572;7.372;2023-06-26T07:55:18;21.63;;;8.43;;
31424;SDS011;18054;51.572;7.372;2023-06-26T07:57:46;18.15;;;8.55;;
31424;SDS011;18054;51.572;7.372;2023-06-26T08:00:15;25.80;;;8.98;;
31424;SDS011;18054;51.572;7.372;2023-06-26T08:02:42;18.27;;;7.82;;
31424;SDS011;18054;51.572;7.372;2023-06-26T08:05:10;25.55;;;7.05;;
31424;SDS011;18054;51.572;7.372;2023-06-26T08:07:37;19.90;;;7.80;;
31424;SDS011;18054;51.572;7.372;2023-06-26T08:10:05;30.15;;;8.10;;
31424;SDS011;18054;51.572;7.372;2023-06-26T08:15:00;12.55;;;6.82;;
31424;SDS011;18054;51.572;7.372;2023-06-26T08:17:30;20.33;;;7.80;;
31424;SDS011;18054;51.572;7.372;2023-06-26T08:19:57;26.63;;;7.55;;
31424;SDS011;18054;51.572;7.372;2023-06-26T08:22:25;16.90;;;7.03;;
31424;SDS011;18054;51.572;7.372;2023-06-26T08:27:20;21.67;;;6.97;;
31424;SDS011;18054;51.572;7.372;2023-06-26T08:29:47;18.48;;;7.38;;
31424;SDS011;18054;51.572;7.372;2023-06-26T08:32:15;22.42;;;7.50;;
31424;SDS011;18054;51.572;7.372;2023-06-26T08:34:44;20.95;;;6.93;;
31424;SDS011;18054;51.572;7.372;2023-06-26T08:37:14;19.80;;;7.07;;
31424;SDS011;18054;51.572;7.372;2023-06-26T08:39:41;17.48;;;7.03;;
31424;SDS011;18054;51.572;7.372;2023-06-26T08:42:09;21.92;;;6.60;;
31424;SDS011;18054;51.572;7.372;2023-06-26T08:44:36;13.50;;;6.07;;
31424;SDS011;18054;51.572;7.372;2023-06-26T08:47:18;18.27;;;6.50;;
31424;SDS011;18054;51.572;7.372;2023-06-26T08:49:51;22.17;;;6.45;;
31424;SDS011;18054;51.572;7.372;2023-06-26T08:52:22;17.20;;;5.60;;
31424;SDS011;18054;51.572;7.372;2023-06-26T08:54:52;16.33;;;6.18;;
31424;SDS011;18054;51.572;7.372;2023-06-26T08:57:21;17.13;;;6.32;;
31424;SDS011;18054;51.572;7.372;2023-06-26T08:59:49;19.13;;;6.30;;
31424;SDS011;18054;51.572;7.372;2023-06-26T09:02:17;18.73;;;5.80;;
31424;SDS011;18054;51.572;7.372;2023-06-26T09:04:47;18.73;;;6.45;;
31424;SDS011;18054;51.572;7.372;2023-06-26T09:07:16;24.85;;;6.65;;
31424;SDS011;18054;51.572;7.372;2023-06-26T09:09:44;14.70;;;5.28;;
31424;SDS011;18054;51.572;7.372;2023-06-26T09:12:11;18.75;;;5.78;;
31424;SDS011;18054;51.572;7.372;2023-06-26T09:14:38;21.77;;;5.35;;
31424;SDS011;18054;51.572;7.372;2023-06-26T09:17:06;15.40;;;6.20;;
31424;SDS011;18054;51.572;7.372;2023-06-26T09:19:35;17.00;;;5.43;;
31424;SDS011;18054;51.572;7.372;2023-06-26T09:22:03;17.70;;;5.90;;
31424;SDS011;18054;51.572;7.372;2023-06-26T09:24:32;15.07;;;5.35;;
31424;SDS011;18054;51.572;7.372;2023-06-26T09:27:00;17.27;;;4.80;;
31424;SDS011;18054;51.572;7.372;2023-06-26T09:29:28;16.00;;;5.05;;
31424;SDS011;18054;51.572;7.372;2023-06-26T09:34:29;20.33;;;5.32;;
31424;SDS011;18054;51.572;7.372;2023-06-26T09:36:57;13.40;;;5.68;;
31424;SDS011;18054;51.572;7.372;2023-06-26T09:39:25;21.25;;;4.85;;
31424;SDS011;18054;51.572;7.372;2023-06-26T09:41:53;20.52;;;5.50;;
31424;SDS011;18054;51.572;7.372;2023-06-26T09:44:23;20.23;;;4.97;;
31424;SDS011;18054;51.572;7.372;2023-06-26T09:46:50;19.58;;;4.70;;
31424;SDS011;18054;51.572;7.372;2023-06-26T09:49:17;15.35;;;4.00;;
31424;SDS011;18054;51.572;7.372;2023-06-26T09:51:45;16.52;;;5.18;;
31424;SDS011;18054;51.572;7.372;2023-06-26T09:54:15;13.25;;;4.47;;
31424;SDS011;18054;51.572;7.372;2023-06-26T09:56:43;13.80;;;4.60;;
31424;SDS011;18054;51.572;7.372;2023-06-26T09:59:12;11.38;;;4.03;;
31424;SDS011;18054;51.572;7.372;2023-06-26T10:01:41;19.45;;;4.80;;
31424;SDS011;18054;51.572;7.372;2023-06-26T10:04:09;11.55;;;4.53;;
31424;SDS011;18054;51.572;7.372;2023-06-26T10:06:37;13.40;;;4.68;;
31424;SDS011;18054;51.572;7.372;2023-06-26T10:09:06;11.55;;;3.80;;
31424;SDS011;18054;51.572;7.372;2023-06-26T10:11:35;19.80;;;4.35;;
31424;SDS011;18054;51.572;7.372;2023-06-26T10:14:04;11.38;;;3.67;;
31424;SDS011;18054;51.572;7.372;2023-06-26T10:16:45;12.98;;;4.47;;
31424;SDS011;18054;51.572;7.372;2023-06-26T10:19:13;32.63;;;5.78;;
31424;SDS011;18054;51.572;7.372;2023-06-26T10:21:41;16.38;;;4.22;;
31424;SDS011;18054;51.572;7.372;2023-06-26T10:24:09;13.60;;;3.67;;
31424;SDS011;18054;51.572;7.372;2023-06-26T10:26:38;15.82;;;4.45;;
31424;SDS011;18054;51.572;7.372;2023-06-26T10:29:08;26.98;;;5.25;;
31424;SDS011;18054;51.572;7.372;2023-06-26T10:31:36;15.07;;;3.72;;
31424;SDS011;18054;51.572;7.372;2023-06-26T10:34:06;14.20;;;3.78;;
31424;SDS011;18054;51.572;7.372;2023-06-26T10:36:33;16.90;;;3.25;;
31424;SDS011;18054;51.572;7.372;2023-06-26T10:39:03;10.82;;;3.10;;
31424;SDS011;18054;51.572;7.372;2023-06-26T10:41:36;15.23;;;3.53;;
31424;SDS011;18054;51.572;7.372;2023-06-26T10:44:09;17.55;;;3.95;;
31424;SDS011;18054;51.572;7.372;2023-06-26T10:49:27;11.85;;;4.03;;
31424;SDS011;18054;51.572;7.372;2023-06-26T10:51:55;13.20;;;3.65;;
31424;SDS011;18054;51.572;7.372;2023-06-26T10:54:27;13.55;;;3.75;;
31424;SDS011;18054;51.572;7.372;2023-06-26T10:56:55;17.02;;;3.85;;
31424;SDS011;18054;51.572;7.372;2023-06-26T10:59:24;9.35;;;3.05;;
31424;SDS011;18054;51.572;7.372;2023-06-26T11:01:54;9.68;;;3.20;;
31424;SDS011;18054;51.572;7.372;2023-06-26T11:04:37;7.85;;;2.97;;
31424;SDS011;18054;51.572;7.372;2023-06-26T11:07:15;16.83;;;3.55;;
31424;SDS011;18054;51.572;7.372;2023-06-26T11:12:35;9.27;;;3.10;;
31424;SDS011;18054;51.572;7.372;2023-06-26T11:15:03;19.50;;;3.40;;
31424;SDS011;18054;51.572;7.372;2023-06-26T11:17:31;9.98;;;3.55;;
31424;SDS011;18054;51.572;7.372;2023-06-26T11:19:59;12.68;;;3.47;;
31424;SDS011;18054;51.572;7.372;2023-06-26T11:22:30;20.65;;;3.20;;
31424;SDS011;18054;51.572;7.372;2023-06-26T11:29:52;16.67;;;3.50;;
31424;SDS011;18054;51.572;7.372;2023-06-26T11:32:19;10.20;;;3.50;;
31424;SDS011;18054;51.572;7.372;2023-06-26T11:34:47;10.75;;;3.50;;
31424;SDS011;18054;51.572;7.372;2023-06-26T11:37:17;14.18;;;3.35;;
31424;SDS011;18054;51.572;7.372;2023-06-26T11:39:44;19.58;;;3.80;;
31424;SDS011;18054;51.572;7.372;2023-06-26T11:42:12;12.43;;;3.72;;
31424;SDS011;18054;51.572;7.372;2023-06-26T11:44:40;13.35;;;3.42;;
31424;SDS011;18054;51.572;7.372;2023-06-26T11:47:11;16.52;;;4.22;;
31424;SDS011;18054;51.572;7.372;2023-06-26T11:49:41;10.95;;;3.50;;
31424;SDS011;18054;51.572;7.372;2023-06-26T11:52:09;11.85;;;3.08;;
31424;SDS011;18054;51.572;7.372;2023-06-26T11:54:37;8.30;;;2.67;;
31424;SDS011;18054;51.572;7.372;2023-06-26T11:57:05;8.63;;;2.53;;
31424;SDS011;18054;51.572;7.372;2023-06-26T11:59:33;12.48;;;2.50;;
31424;SDS011;18054;51.572;7.372;2023-06-26T12:02:04;6.45;;;2.20;;
31424;SDS011;18054;51.572;7.372;2023-06-26T12:04:31;13.20;;;2.63;;
31424;SDS011;18054;51.572;7.372;2023-06-26T12:07:00;20.52;;;2.45;;
31424;SDS011;18054;51.572;7.372;2023-06-26T12:09:30;10.98;;;2.28;;
31424;SDS011;18054;51.572;7.372;2023-06-26T12:12:01;7.13;;;2.20;;
31424;SDS011;18054;51.572;7.372;2023-06-26T12:14:29;7.43;;;2.33;;
31424;SDS011;18054;51.572;7.372;2023-06-26T12:17:03;10.75;;;2.40;;
31424;SDS011;18054;51.572;7.372;2023-06-26T12:19:31;12.52;;;2.17;;
31424;SDS011;18054;51.572;7.372;2023-06-26T12:21:59;24.75;;;2.88;;
31424;SDS011;18054;51.572;7.372;2023-06-26T12:24:33;7.13;;;1.92;;
31424;SDS011;18054;51.572;7.372;2023-06-26T12:27:02;9.18;;;2.17;;
31424;SDS011;18054;51.572;7.372;2023-06-26T12:29:31;11.05;;;2.00;;
31424;SDS011;18054;51.572;7.372;2023-06-26T12:31:59;9.48;;;1.90;;
31424;SDS011;18054;51.572;7.372;2023-06-26T12:34:27;9.35;;;1.70;;
31424;SDS011;18054;51.572;7.372;2023-06-26T12:36:59;3.92;;;1.25;;
31424;SDS011;18054;51.572;7.372;2023-06-26T12:39:26;8.25;;;2.00;;
31424;SDS011;18054;51.572;7.372;2023-06-26T12:41:55;13.13;;;1.85;;
31424;SDS011;18054;51.572;7.372;2023-06-26T12:44:26;9.20;;;1.95;;
31424;SDS011;18054;51.572;7.372;2023-06-26T12:46:57;8.05;;;1.83;;
31424;SDS011;18054;51.572;7.372;2023-06-26T12:49:31;7.65;;;1.33;;
31424;SDS011;18054;51.572;7.372;2023-06-26T12:51:59;12.73;;;1.63;;
31424;SDS011;18054;51.572;7.372;2023-06-26T12:54:27;4.47;;;1.58;;
31424;SDS011;18054;51.572;7.372;2023-06-26T12:59:22;8.10;;;1.63;;
31424;SDS011;18054;51.572;7.372;2023-06-26T13:04:18;10.63;;;1.55;;
31424;SDS011;18054;51.572;7.372;2023-06-26T13:06:45;10.10;;;1.67;;
31424;SDS011;18054;51.572;7.372;2023-06-26T13:09:13;4.78;;;1.35;;
31424;SDS011;18054;51.572;7.372;2023-06-26T13:11:41;3.65;;;1.38;;
31424;SDS011;18054;51.572;7.372;2023-06-26T13:16:37;13.18;;;1.98;;
31424;SDS011;18054;51.572;7.372;2023-06-26T13:19:05;10.23;;;1.63;;
31424;SDS011;18054;51.572;7.372;2023-06-26T13:24:01;5.93;;;1.20;;
31424;SDS011;18054;51.572;7.372;2023-06-26T13:26:30;7.38;;;1.40;;
31424;SDS011;18054;51.572;7.372;2023-06-26T13:29:03;5.65;;;1.70;;
31424;SDS011;18054;51.572;7.372;2023-06-26T13:31:31;8.52;;;1.92;;
31424;SDS011;18054;51.572;7.372;2023-06-26T13:33:59;6.80;;;1.30;;
31424;SDS011;18054;51.572;7.372;2023-06-26T13:36:26;8.45;;;1.60;;
31424;SDS011;18054;51.572;7.372;2023-06-26T13:38:54;3.58;;;1.15;;
31424;SDS011;18054;51.572;7.372;2023-06-26T13:41:24;6.30;;;1.42;;
31424;SDS011;18054;51.572;7.372;2023-06-26T13:43:52;8.55;;;1.20;;
31424;SDS011;18054;51.572;7.372;2023-06-26T13:46:25;4.70;;;1.13;;
31424;SDS011;18054;51.572;7.372;2023-06-26T13:48:54;6.78;;;1.40;;
31424;SDS011;18054;51.572;7.372;2023-06-26T13:53:49;4.53;;;1.67;;
31424;SDS011;18054;51.572;7.372;2023-06-26T14:01:12;5.85;;;2.10;;
31424;SDS011;18054;51.572;7.372;2023-06-26T14:03:40;9.27;;;1.45;;
31424;SDS011;18054;51.572;7.372;2023-06-26T14:06:07;9.93;;;1.27;;
31424;SDS011;18054;51.572;7.372;2023-06-26T14:23:21;10.73;;;1.50;;
31424;SDS011;18054;51.572;7.372;2023-06-26T14:25:48;6.43;;;1.50;;
31424;SDS011;18054;51.572;7.372;2023-06-26T14:33:10;12.05;;;1.52;;
31424;SDS011;18054;51.572;7.372;2023-06-26T14:40:34;4.45;;;1.63;;
31424;SDS011;18054;51.572;7.372;2023-06-26T14:43:02;6.03;;;1.20;;
31424;SDS011;18054;51.572;7.372;2023-06-26T14:45:30;9.40;;;1.38;;
31424;SDS011;18054;51.572;7.372;2023-06-26T14:47:58;8.63;;;1.52;;
31424;SDS011;18054;51.572;7.372;2023-06-26T14:50:25;5.45;;;1.50;;
31424;SDS011;18054;51.572;7.372;2023-06-26T14:52:53;8.82;;;1.25;;
31424;SDS011;18054;51.572;7.372;2023-06-26T14:55:20;10.75;;;1.92;;
31424;SDS011;18054;51.572;7.372;2023-06-26T14:57:49;6.95;;;1.30;;
31424;SDS011;18054;51.572;7.372;2023-06-26T15:00:16;5.72;;;1.58;;
31424;SDS011;18054;51.572;7.372;2023-06-26T15:02:44;7.05;;;1.42;;
31424;SDS011;18054;51.572;7.372;2023-06-26T15:07:39;7.72;;;1.48;;
31424;SDS011;18054;51.572;7.372;2023-06-26T15:10:07;6.80;;;1.67;;
31424;SDS011;18054;51.572;7.372;2023-06-26T15:12:35;8.50;;;1.58;;
31424;SDS011;18054;51.572;7.372;2023-06-26T15:15:05;10.48;;;1.75;;
31424;SDS011;18054;51.572;7.372;2023-06-26T15:17:34;6.60;;;1.38;;
31424;SDS011;18054;51.572;7.372;2023-06-26T15:20:02;11.82;;;2.13;;
31424;SDS011;18054;51.572;7.372;2023-06-26T15:24:57;5.95;;;1.08;;
31424;SDS011;18054;51.572;7.372;2023-06-26T15:27:24;7.00;;;1.27;;
31424;SDS011;18054;51.572;7.372;2023-06-26T15:29:51;11.35;;;2.10;;
31424;SDS011;18054;51.572;7.372;2023-06-26T15:32:20;10.27;;;1.90;;
31424;SDS011;18054;51.572;7.372;2023-06-26T15:34:48;11.32;;;2.25;;
31424;SDS011;18054;51.572;7.372;2023-06-26T15:37:15;6.95;;;2.28;;
31424;SDS011;18054;51.572;7.372;2023-06-26T15:39:42;10.13;;;2.70;;
31424;SDS011;18054;51.572;7.372;2023-06-26T15:42:10;16.25;;;2.63;;
31424;SDS011;18054;51.572;7.372;2023-06-26T15:44:37;5.78;;;2.60;;
31424;SDS011;18054;51.572;7.372;2023-06-26T15:49:34;8.38;;;1.42;;
31424;SDS011;18054;51.572;7.372;2023-06-26T15:52:01;7.90;;;1.75;;
31424;SDS011;18054;51.572;7.372;2023-06-26T15:54:28;8.73;;;1.30;;
31424;SDS011;18054;51.572;7.372;2023-06-26T15:56:56;4.80;;;1.48;;
31424;SDS011;18054;51.572;7.372;2023-06-26T15:59:23;3.88;;;1.30;;
31424;SDS011;18054;51.572;7.372;2023-06-26T16:01:51;4.90;;;1.75;;
31424;SDS011;18054;51.572;7.372;2023-06-26T16:04:20;6.70;;;1.85;;
31424;SDS011;18054;51.572;7.372;2023-06-26T16:09:17;4.53;;;2.00;;
31424;SDS011;18054;51.572;7.372;2023-06-26T16:11:44;3.20;;;1.20;;
31424;SDS011;18054;51.572;7.372;2023-06-26T16:14:12;8.88;;;1.83;;
31424;SDS011;18054;51.572;7.372;2023-06-26T16:16:39;10.98;;;1.55;;
31424;SDS011;18054;51.572;7.372;2023-06-26T16:19:06;5.63;;;1.48;;
31424;SDS011;18054;51.572;7.372;2023-06-26T16:21:34;5.72;;;1.20;;